createdAt,value
2018-09-23T06:01:03.800Z,99.90
2018-09-23T06:03:33.977Z,99.90
2018-09-23T06:06:03.664Z,99.90
2018-09-23T06:08:33.619Z,99.90
2018-09-23T06:11:03.320Z,99.90
2018-09-23T06:13:37.185Z,99.90
2018-09-23T06:16:12.384Z,99.90
2018-09-23T06:18:43.255Z,99.90
2018-09-23T06:21:13.121Z,99.90
2018-09-23T06:23:42.803Z,99.90
2018-09-23T06:26:12.714Z,99.90
2018-09-23T06:28:42.907Z,99.90
2018-09-23T06:31:12.809Z,99.90
2018-09-23T06:33:43.532Z,99.90
2018-09-23T06:36:13.331Z,99.90
2018-09-23T06:38:43.034Z,99.90
2018-09-23T06:41:12.687Z,99.90
2018-09-23T06:43:42.624Z,99.90
2018-09-23T06:46:12.317Z,99.90
2018-09-23T06:48:43.335Z,99.90
2018-09-23T06:51:13.081Z,99.90
2018-09-23T06:53:42.768Z,99.90
2018-09-23T06:56:12.424Z,99.90
2018-09-23T06:58:42.588Z,99.90
2018-09-23T07:01:12.255Z,99.90
2018-09-23T07:03:43.452Z,99.90
2018-09-23T07:06:13.585Z,99.90
2018-09-23T07:08:43.329Z,99.90
2018-09-23T07:11:12.995Z,99.90
2018-09-23T07:13:42.815Z,99.90
2018-09-23T07:16:12.418Z,99.90
2018-09-23T07:18:45.506Z,99.90
2018-09-23T07:21:15.578Z,99.80
2018-09-23T07:23:45.324Z,99.60
2018-09-23T07:26:26.015Z,98.80
2018-09-23T07:29:07.932Z,98.40
2018-09-23T07:31:38.568Z,98.30
2018-09-23T07:34:08.299Z,97.80
2018-09-23T07:36:38.859Z,97.80
2018-09-23T07:39:09.961Z,97.70
2018-09-23T07:41:40.637Z,98.20
2018-09-23T07:44:10.415Z,98.20
2018-09-23T07:46:40.355Z,98.20
2018-09-23T07:49:10.001Z,97.90
2018-09-23T07:51:40.810Z,97.50
2018-09-23T07:54:10.531Z,97.80
2018-09-23T07:56:40.681Z,96.70
2018-09-23T07:59:10.408Z,96.40
2018-09-23T08:01:40.331Z,96.20
2018-09-23T08:04:10.032Z,96.10
2018-09-23T08:06:41.040Z,95.90
2018-09-23T08:09:11.139Z,96.00
2018-09-23T08:11:41.249Z,95.50
2018-09-23T08:14:11.266Z,95.50
2018-09-23T08:16:41.345Z,95.00
2018-09-23T08:19:12.411Z,94.70
2018-09-23T08:21:44.339Z,94.60
2018-09-23T08:24:14.338Z,95.10
2018-09-23T08:26:45.045Z,94.60
2018-09-23T08:29:17.403Z,94.60
2018-09-23T08:31:47.750Z,94.60
2018-09-23T08:34:17.489Z,93.50
2018-09-23T08:36:47.684Z,93.70
2018-09-23T08:39:17.594Z,93.60
2018-09-23T08:41:48.341Z,92.60
2018-09-23T08:44:19.105Z,92.90
2018-09-23T08:46:48.819Z,93.20
2018-09-23T08:49:18.545Z,92.40
2018-09-23T08:51:49.347Z,92.20
2018-09-23T08:54:19.105Z,92.00
2018-09-23T08:56:48.730Z,92.20
2018-09-23T08:59:20.064Z,92.60
2018-09-23T09:01:49.913Z,91.60
2018-09-23T09:04:21.799Z,91.70
2018-09-23T09:06:51.513Z,92.00
2018-09-23T09:09:23.051Z,91.70
2018-09-23T09:11:54.811Z,90.40
2018-09-23T09:14:24.476Z,90.60
2018-09-23T09:16:54.493Z,91.30
2018-09-23T09:19:24.660Z,90.60
2018-09-23T09:21:57.948Z,89.70
2018-09-23T09:24:28.599Z,90.60
2018-09-23T09:27:00.657Z,91.20
2018-09-23T09:29:30.383Z,90.10
2018-09-23T09:32:00.144Z,88.70
2018-09-23T09:34:30.137Z,90.00
2018-09-23T09:37:01.462Z,88.10
2018-09-23T09:39:31.346Z,85.00
2018-09-23T09:42:03.946Z,84.90
2018-09-23T09:44:35.147Z,85.40
2018-09-23T09:47:05.067Z,85.00
2018-09-23T09:49:36.386Z,83.30
2018-09-23T09:52:06.329Z,82.70
2018-09-23T09:54:36.017Z,80.30
2018-09-23T09:57:05.430Z,81.80
2018-09-23T09:59:36.033Z,80.90
2018-09-23T10:02:05.817Z,82.40
2018-09-23T10:04:36.127Z,80.80
2018-09-23T10:07:07.973Z,82.20
2018-09-23T10:09:38.207Z,81.20
2018-09-23T10:12:07.958Z,83.00
2018-09-23T10:14:37.677Z,83.20
2018-09-23T10:17:07.374Z,79.90
2018-09-23T10:19:37.772Z,80.90
2018-09-23T10:22:07.663Z,80.30
2018-09-23T10:24:37.743Z,79.20
2018-09-23T10:27:07.596Z,79.30
2018-09-23T10:29:37.290Z,79.60
2018-09-23T10:32:07.274Z,80.00
2018-09-23T10:34:37.756Z,78.90
2018-09-23T10:37:07.483Z,76.90
2018-09-23T10:39:37.901Z,79.80
2018-09-23T10:42:07.659Z,80.70
2018-09-23T10:44:37.296Z,79.10
2018-09-23T10:47:07.066Z,77.90
2018-09-23T10:49:37.837Z,77.60
2018-09-23T10:52:07.624Z,74.40
2018-09-23T10:54:37.329Z,76.10
2018-09-23T10:57:06.993Z,77.00
2018-09-23T10:59:36.683Z,76.80
2018-09-23T11:02:06.710Z,76.70
2018-09-23T11:04:39.079Z,77.90
2018-09-23T11:07:15.689Z,78.30
2018-09-23T11:09:51.282Z,77.60
2018-09-23T11:12:21.989Z,76.90
2018-09-23T11:14:53.242Z,76.50
2018-09-23T11:17:23.076Z,78.80
2018-09-23T11:19:53.375Z,79.50
2018-09-23T11:22:23.105Z,80.50
2018-09-23T11:24:53.627Z,80.60
2018-09-23T11:27:24.353Z,80.80
2018-09-23T11:29:54.962Z,81.80
2018-09-23T11:32:24.623Z,82.70
2018-09-23T11:34:54.886Z,84.50
2018-09-23T11:37:24.610Z,85.80
2018-09-23T11:39:55.119Z,84.70
2018-09-23T11:42:25.007Z,85.00
2018-09-23T11:44:55.280Z,87.80
2018-09-23T11:47:24.993Z,86.70
2018-09-23T11:49:56.757Z,87.90
2018-09-23T11:52:26.434Z,88.80
2018-09-23T11:54:56.342Z,88.60
2018-09-23T11:57:26.088Z,88.40
2018-09-23T11:59:56.135Z,89.80
2018-09-23T12:02:27.747Z,90.20
2018-09-23T12:04:57.501Z,90.80
2018-09-23T12:07:27.229Z,90.20
2018-09-23T12:09:57.237Z,90.30
2018-09-23T12:12:27.735Z,90.20
2018-09-23T12:15:28.193Z,90.40
2018-09-23T12:17:57.980Z,91.10
2018-09-23T12:20:27.682Z,91.60
2018-09-23T12:22:57.681Z,90.90
2018-09-23T12:25:27.521Z,91.00
2018-09-23T12:27:57.570Z,91.30
2018-09-23T12:30:27.233Z,93.10
2018-09-23T12:32:57.600Z,93.20
2018-09-23T12:35:27.283Z,94.30
2018-09-23T12:37:57.466Z,94.10
2018-09-23T12:40:27.135Z,92.80
2018-09-23T12:42:57.269Z,92.40
2018-09-23T12:45:27.261Z,93.60
2018-09-23T12:47:58.073Z,94.70
2018-09-23T12:50:27.710Z,94.50
2018-09-23T12:52:58.014Z,94.60
2018-09-23T12:55:27.697Z,95.80
2018-09-23T12:57:58.491Z,95.70
2018-09-23T13:00:28.171Z,95.40
2018-09-23T13:02:58.618Z,96.30
2018-09-23T13:05:28.314Z,96.90
2018-09-23T13:07:58.891Z,97.80
2018-09-23T13:10:28.508Z,96.40
2018-09-23T13:12:59.083Z,96.70
2018-09-23T13:15:28.895Z,99.00
2018-09-23T13:17:59.425Z,98.10
2018-09-23T13:20:29.058Z,98.40
2018-09-23T13:22:59.477Z,97.80
2018-09-23T13:25:29.165Z,97.30
2018-09-23T13:28:00.394Z,97.80
2018-09-23T13:30:30.079Z,98.50
2018-09-23T13:33:00.522Z,98.30
2018-09-23T13:35:30.195Z,98.80
2018-09-23T13:38:00.234Z,99.10
2018-09-23T13:40:29.932Z,99.10
2018-09-23T13:42:59.886Z,99.10
2018-09-23T13:45:29.546Z,99.20
2018-09-23T13:47:59.759Z,99.90
2018-09-23T13:50:29.450Z,99.90
2018-09-23T13:52:59.585Z,99.90
2018-09-23T13:55:29.335Z,99.90
2018-09-23T13:57:59.790Z,99.90
2018-09-23T14:00:29.575Z,99.90
2018-09-23T14:03:00.153Z,99.90
